Time;durP1;ratioP1;P1;durP2;ratioP2;P2;SDS_P1;SDS_P2;PMS_P1;PMS_P2;Temp;Humidity;BMP_temperature;BMP_pressure;BME280_temperature;BME280_humidity;BME280_pressure;Samples;Min_cycle;Max_cycle;Signal;HPM_P1;HPM_P2
2021/12/28 00:01:24;;;;;;;51.35;26.98;;;;;;;;;;5016462;28;20050;-78
2021/12/28 00:03:51;;;;;;;45.58;25.05;;;;;;;;;;5001777;28;20049;-77
2021/12/28 00:06:18;;;;;;;58.35;30.02;;;5.20;99.90;;;;;;4999207;28;20417;-75
2021/12/28 00:08:44;;;;;;;58.15;30.65;;;;;;;;;;4995587;28;20454;-76
2021/12/28 00:11:10;;;;;;;54.67;30.25;;;;;;;;;;5015568;28;20041;-76
2021/12/28 00:13:37;;;;;;;45.95;26.13;;;;;;;;;;5017532;28;20130;-77
2021/12/28 00:18:33;;;;;;;67.03;33.58;;;;;;;;;;5030227;28;20046;-76
2021/12/28 00:21:00;;;;;;;58.35;30.88;;;5.30;99.90;;;;;;5030353;28;20489;-76
2021/12/28 00:23:33;;;;;;;59.10;30.25;;;;;;;;;;5037446;28;20033;-77
2021/12/28 00:25:59;;;;;;;54.33;29.63;;;5.10;99.90;;;;;;5014981;28;20041;-77
2021/12/28 00:28:25;;;;;;;72.22;36.00;;;;;;;;;;5019354;28;20044;-77
2021/12/28 00:30:52;;;;;;;57.03;29.30;;;;;;;;;;5020071;28;20508;-77
2021/12/28 00:33:19;;;;;;;70.03;34.97;;;5.40;99.90;;;;;;5020518;28;20287;-77
2021/12/28 00:35:45;;;;;;;66.55;32.78;;;;;;;;;;5019293;28;20045;-77
2021/12/28 00:38:14;;;;;;;63.85;32.17;;;;;;;;;;5017118;28;20037;-77
2021/12/28 00:40:40;;;;;;;68.28;32.60;;;;;;;;;;5015821;28;20409;-78
2021/12/28 00:43:07;;;;;;;70.43;34.40;;;;;;;;;;5016002;28;20139;-76
2021/12/28 00:45:33;;;;;;;76.95;34.78;;;;;;;;;;5015404;28;20041;-78
2021/12/28 00:47:59;;;;;;;66.88;34.38;;;;;;;;;;4999273;28;20101;-78
2021/12/28 00:50:25;;;;;;;64.13;31.80;;;;;;;;;;5015329;28;20067;-78
2021/12/28 00:52:51;;;;;;;76.65;36.13;;;;;;;;;;4999618;28;20455;-77
2021/12/28 00:55:18;;;;;;;80.25;37.75;;;;;;;;;;5015218;28;20091;-76
2021/12/28 00:57:44;;;;;;;113.57;46.20;;;;;;;;;;4998033;28;20087;-78
2021/12/28 01:00:15;;;;;;;75.65;37.10;;;5.50;99.90;;;;;;5012133;28;20041;-78
2021/12/28 01:02:41;;;;;;;92.15;41.47;;;;;;;;;;4995342;28;20128;-78
2021/12/28 01:05:09;;;;;;;81.20;37.53;;;;;;;;;;4998965;28;20037;-78
2021/12/28 01:07:35;;;;;;;90.30;39.33;;;;;;;;;;5025169;28;20041;-77
2021/12/28 01:10:01;;;;;;;86.68;38.65;;;;;;;;;;5037275;28;20046;-77
2021/12/28 01:12:27;;;;;;;90.38;40.53;;;5.60;99.90;;;;;;5037521;28;20053;-78
2021/12/28 01:14:53;;;;;;;94.35;41.55;;;;;;;;;;5038432;28;20053;-77
2021/12/28 01:17:18;;;;;;;120.95;48.10;;;5.90;99.90;;;;;;5037164;28;20047;-77
2021/12/28 01:19:44;;;;;;;116.30;47.75;;;;;;;;;;5037994;28;20416;-76
2021/12/28 01:22:10;;;;;;;96.50;41.58;;;;;;;;;;5038470;28;20072;-78
2021/12/28 01:24:36;;;;;;;113.72;44.60;;;;;;;;;;5035583;28;20037;-78
2021/12/28 01:27:02;;;;;;;99.97;43.80;;;6.10;99.90;;;;;;5035358;28;20057;-78
2021/12/28 01:29:28;;;;;;;96.70;42.40;;;6.00;99.90;;;;;;5002266;28;20416;-77
2021/12/28 01:31:54;;;;;;;122.43;47.30;;;6.10;99.90;;;;;;5019261;28;20037;-77
2021/12/28 01:34:20;;;;;;;135.00;49.90;;;;;;;;;;5019159;28;20041;-78
2021/12/28 01:36:46;;;;;;;115.18;43.95;;;;;;;;;;5027704;28;20045;-78
2021/12/28 01:39:12;;;;;;;190.23;58.50;;;;;;;;;;5037555;28;20057;-77
2021/12/28 01:41:38;;;;;;;218.75;63.45;;;6.20;99.90;;;;;;5039235;28;20061;-77
2021/12/28 01:44:09;;;;;;;133.68;47.40;;;6.10;99.90;;;;;;5037472;28;20524;-78
2021/12/28 01:46:35;;;;;;;114.85;45.75;;;;;;;;;;5037848;28;20041;-77
2021/12/28 01:49:03;;;;;;;150.10;51.78;;;6.00;99.90;;;;;;5037511;28;20073;-77
2021/12/28 01:51:29;;;;;;;161.68;51.05;;;;;;;;;;5038127;28;20037;-78
2021/12/28 01:53:57;;;;;;;187.98;57.75;;;6.10;99.90;;;;;;5020029;28;20045;-78
2021/12/28 01:56:24;;;;;;;300.88;75.85;;;;;;;;;;5036537;28;20431;-77
2021/12/28 01:58:51;;;;;;;134.30;47.90;;;;;;;;;;5036761;28;20041;-74
2021/12/28 02:01:17;;;;;;;119.80;45.38;;;;;;;;;;5024184;28;20104;-77
2021/12/28 02:03:43;;;;;;;311.23;76.82;;;;;;;;;;5000059;28;20049;-78
2021/12/28 02:06:10;;;;;;;125.43;46.20;;;6.10;99.90;;;;;;5016326;28;20404;-77
2021/12/28 02:08:37;;;;;;;250.70;66.32;;;;;;;;;;5036402;28;20048;-78
2021/12/28 02:11:04;;;;;;;119.95;44.58;;;6.10;99.90;;;;;;5036492;28;20041;-78
2021/12/28 02:13:30;;;;;;;185.13;55.63;;;;;;;;;;5037686;28;20049;-77
2021/12/28 02:15:57;;;;;;;429.98;93.75;;;6.10;99.90;;;;;;5035121;28;20037;-77
2021/12/28 02:18:24;;;;;;;137.23;45.17;;;;;;;;;;5036429;28;20401;-78
2021/12/28 02:20:51;;;;;;;186.60;54.78;;;6.10;99.90;;;;;;5036560;28;20128;-76
2021/12/28 02:23:17;;;;;;;188.98;58.35;;;6.30;99.90;;;;;;5019827;28;20067;-78
2021/12/28 02:25:43;;;;;;;149.18;48.85;;;;;;;;;;5031792;28;20048;-77
2021/12/28 02:28:10;;;;;;;148.50;49.03;;;6.50;99.90;;;;;;5020099;28;20052;-77
2021/12/28 02:30:36;;;;;;;232.05;62.58;;;;;;;;;;5019429;28;20041;-78
2021/12/28 02:33:03;;;;;;;177.95;51.15;;;6.50;99.90;;;;;;5003346;28;20045;-77
2021/12/28 02:35:29;;;;;;;147.82;46.97;;;;;;;;;;5019126;28;20041;-77
2021/12/28 02:37:55;;;;;;;175.63;51.33;;;6.40;99.90;;;;;;5019028;28;20124;-76
2021/12/28 02:40:23;;;;;;;167.20;49.20;;;;;;;;;;5019754;28;20390;-78
2021/12/28 02:42:49;;;;;;;221.25;58.78;;;;;;;;;;5018442;28;20069;-77
2021/12/28 02:45:19;;;;;;;195.90;53.15;;;;;;;;;;5002434;28;20041;-78
2021/12/28 02:47:46;;;;;;;216.13;59.13;;;6.30;99.90;;;;;;5019506;28;20060;-76
2021/12/28 02:50:17;;;;;;;173.02;51.08;;;6.70;99.90;;;;;;5019075;28;20053;-78
2021/12/28 02:52:43;;;;;;;194.43;53.30;;;;;;;;;;5018663;28;20041;-77
2021/12/28 02:55:12;;;;;;;169.20;49.38;;;6.60;99.90;;;;;;5020194;28;20132;-78
2021/12/28 02:57:46;;;;;;;140.60;43.53;;;6.50;99.90;;;;;;5019752;28;20045;-78
2021/12/28 03:00:12;;;;;;;182.02;49.58;;;;;;;;;;5016187;28;20054;-78
2021/12/28 03:02:38;;;;;;;155.55;48.35;;;;;;;;;;4987056;28;20065;-76
2021/12/28 03:05:04;;;;;;;167.35;48.47;;;;;;;;;;5006855;28;20049;-78
2021/12/28 03:07:30;;;;;;;179.40;50.90;;;;;;;;;;5008153;28;20037;-79
2021/12/28 03:09:56;;;;;;;138.57;44.70;;;;;;;;;;5026081;28;20065;-77
2021/12/28 03:12:23;;;;;;;212.70;58.33;;;;;;;;;;5043689;28;20068;-77
2021/12/28 03:14:49;;;;;;;132.38;43.60;;;;;;;;;;5043994;28;20179;-77
2021/12/28 03:17:15;;;;;;;163.18;47.90;;;;;;;;;;5043295;28;20088;-77
2021/12/28 03:19:41;;;;;;;187.70;52.97;;;;;;;;;;5044232;28;20056;-77
2021/12/28 03:22:07;;;;;;;136.90;44.65;;;;;;;;;;5046071;28;20041;-77
2021/12/28 03:24:33;;;;;;;148.98;46.63;;;;;;;;;;5044135;28;20045;-77
2021/12/28 03:26:58;;;;;;;173.82;48.90;;;6.70;99.90;;;;;;5029871;28;20059;-78
2021/12/28 03:29:24;;;;;;;126.18;40.35;;;;;;;;;;5045638;28;20041;-77
2021/12/28 03:31:50;;;;;;;142.88;42.85;;;;;;;;;;5008988;28;20044;-78
2021/12/28 03:34:16;;;;;;;182.75;50.70;;;;;;;;;;5017756;28;20501;-78
2021/12/28 03:36:42;;;;;;;156.10;46.28;;;;;;;;;;5017887;28;20100;-78
2021/12/28 03:39:09;;;;;;;139.80;41.55;;;;;;;;;;5018719;28;20034;-78
2021/12/28 03:41:35;;;;;;;160.68;46.53;;;;;;;;;;5021044;28;20053;-79
2021/12/28 03:44:02;;;;;;;138.40;42.67;;;6.90;99.90;;;;;;5039477;28;20101;-78
2021/12/28 03:46:28;;;;;;;141.05;42.03;;;;;;;;;;5036167;28;20053;-78
2021/12/28 03:48:54;;;;;;;150.57;43.90;;;;;;;;;;5020412;28;20041;-78
2021/12/28 03:51:21;;;;;;;140.73;43.97;;;;;;;;;;5020861;28;20134;-77
2021/12/28 03:53:47;;;;;;;130.48;42.63;;;6.60;99.90;;;;;;5029054;28;20045;-77
2021/12/28 03:56:14;;;;;;;126.88;42.35;;;6.60;99.90;;;;;;5019145;28;20049;-78
2021/12/28 03:58:41;;;;;;;188.55;52.03;;;;;;;;;;5026001;28;20038;-75
2021/12/28 04:01:15;;;;;;;121.45;39.80;;;6.70;99.90;;;;;;5015258;28;20048;-78
2021/12/28 04:03:41;;;;;;;136.63;43.67;;;;;;;;;;5005182;28;20025;-77
2021/12/28 04:06:08;;;;;;;175.80;48.58;;;;;;;;;;5019798;28;20022;-76
2021/12/28 04:08:35;;;;;;;167.75;44.22;;;;;;;;;;5018357;28;20089;-78
2021/12/28 04:11:14;;;;;;;138.90;39.75;;;;;;;;;;5020299;28;20029;-76
2021/12/28 04:13:41;;;;;;;139.70;41.53;;;6.80;99.90;;;;;;5020081;28;20037;-75
2021/12/28 04:16:07;;;;;;;144.93;42.75;;;6.60;99.90;;;;;;5017343;28;20046;-77
2021/12/28 04:18:32;;;;;;;144.38;42.17;;;6.70;99.90;;;;;;5014593;28;20029;-77
2021/12/28 04:20:58;;;;;;;123.65;40.78;;;;;;;;;;5009948;28;20038;-77
2021/12/28 04:23:24;;;;;;;122.53;36.90;;;;;;;;;;5006168;28;20038;-77
2021/12/28 04:25:50;;;;;;;134.95;39.13;;;;;;;;;;5019833;28;20041;-77
2021/12/28 04:28:16;;;;;;;126.65;40.03;;;;;;;;;;5026569;28;20101;-78
2021/12/28 04:30:42;;;;;;;143.80;42.55;;;;;;;;;;5025183;28;20048;-78
2021/12/28 04:33:08;;;;;;;129.35;41.45;;;;;;;;;;5009827;28;20493;-77
2021/12/28 04:35:34;;;;;;;127.38;40.92;;;;;;;;;;5025674;28;20077;-78
2021/12/28 04:38:00;;;;;;;111.45;36.55;;;6.90;99.90;;;;;;5024918;28;20041;-78
2021/12/28 04:40:26;;;;;;;141.15;41.40;;;;;;;;;;5028390;28;20037;-77
2021/12/28 04:42:52;;;;;;;114.90;37.67;;;;;;;;;;5029481;28;20509;-78
2021/12/28 04:45:18;;;;;;;129.63;36.17;;;6.90;99.90;;;;;;5030117;28;20518;-77
2021/12/28 04:47:44;;;;;;;126.95;37.13;;;6.80;99.90;;;;;;5029507;28;20041;-78
2021/12/28 04:50:11;;;;;;;111.68;36.42;;;6.90;99.90;;;;;;5028478;28;20049;-77
2021/12/28 04:52:38;;;;;;;97.72;34.15;;;6.70;99.90;;;;;;5027571;28;20110;-77
2021/12/28 04:55:07;;;;;;;115.68;36.40;;;6.80;99.90;;;;;;4992171;28;20045;-78
2021/12/28 04:57:33;;;;;;;134.63;40.42;;;;;;;;;;4997924;28;20038;-77
2021/12/28 04:59:59;;;;;;;124.68;38.05;;;;;;;;;;5007361;28;20053;-77
2021/12/28 05:02:24;;;;;;;127.25;37.28;;;6.70;99.90;;;;;;5007078;28;20106;-78
2021/12/28 05:04:50;;;;;;;115.40;37.17;;;;;;;;;;5007618;28;20478;-76
2021/12/28 05:07:16;;;;;;;109.35;38.20;;;;;;;;;;4989847;28;20045;-76
2021/12/28 05:09:42;;;;;;;111.13;35.75;;;;;;;;;;5006169;28;20088;-78
2021/12/28 05:12:10;;;;;;;102.10;35.08;;;7.00;99.90;;;;;;5006546;28;20042;-77
2021/12/28 05:14:41;;;;;;;123.10;37.53;;;;;;;;;;5013883;28;20443;-78
2021/12/28 05:17:07;;;;;;;108.03;34.95;;;;;;;;;;5025533;28;20060;-77
2021/12/28 05:19:33;;;;;;;104.90;33.00;;;6.90;99.90;;;;;;5025764;28;20052;-78
2021/12/28 05:22:00;;;;;;;110.00;35.45;;;;;;;;;;5025904;28;20451;-77
2021/12/28 05:24:25;;;;;;;108.22;35.85;;;;;;;;;;5026171;28;20400;-77
2021/12/28 05:26:52;;;;;;;107.53;33.13;;;;;;;;;;5025681;28;20047;-77
2021/12/28 05:29:18;;;;;;;93.78;31.73;;;6.80;99.90;;;;;;5008309;28;20044;-78
2021/12/28 05:31:44;;;;;;;101.75;36.03;;;;;;;;;;5025770;28;20033;-77
2021/12/28 05:34:10;;;;;;;98.85;33.63;;;;;;;;;;5025478;28;20183;-77
2021/12/28 05:36:36;;;;;;;106.25;32.17;;;;;;;;;;5025294;28;20044;-77
2021/12/28 05:39:04;;;;;;;96.07;32.75;;;7.00;99.90;;;;;;5025267;28;20042;-77
2021/12/28 05:41:30;;;;;;;105.95;33.95;;;;;;;;;;5042162;28;20120;-78
2021/12/28 05:43:56;;;;;;;107.07;32.80;;;;;;;;;;5025907;28;20038;-78
2021/12/28 05:46:22;;;;;;;106.38;32.90;;;;;;;;;;5025859;28;20033;-79
2021/12/28 05:48:48;;;;;;;101.30;32.88;;;;;;;;;;5003006;28;20045;-76
2021/12/28 05:51:14;;;;;;;93.63;32.65;;;;;;;;;;5016262;28;20037;-77
2021/12/28 05:53:41;;;;;;;98.22;33.72;;;;;;;;;;5002132;28;20041;-77
2021/12/28 05:56:07;;;;;;;92.28;33.75;;;;;;;;;;5067439;23;20091;-67
2021/12/28 05:58:33;;;;;;;97.55;33.13;;;;;;;;;;5052483;28;20079;-67
2021/12/28 06:00:58;;;;;;;97.40;36.03;;;6.70;99.90;;;;;;5030299;28;20112;-67
2021/12/28 06:03:24;;;;;;;99.65;35.42;;;;;;;;;;5053677;28;20041;-67
2021/12/28 06:05:50;;;;;;;89.10;33.25;;;;;;;;;;5039032;28;20050;-67
2021/12/28 06:08:16;;;;;;;92.25;33.33;;;;;;;;;;5033719;28;20037;-67
2021/12/28 06:10:42;;;;;;;91.85;32.80;;;;;;;;;;5029685;28;20515;-67
2021/12/28 06:13:08;;;;;;;103.70;36.15;;;;;;;;;;5032234;28;20052;-67
2021/12/28 06:15:34;;;;;;;95.35;33.60;;;6.70;99.90;;;;;;5033428;28;20073;-67
2021/12/28 06:18:00;;;;;;;88.15;31.85;;;;;;;;;;5032240;28;20409;-67
2021/12/28 06:20:25;;;;;;;92.45;32.65;;;6.90;99.90;;;;;;5032153;28;20072;-67
2021/12/28 06:22:51;;;;;;;88.97;33.65;;;;;;;;;;5015944;28;20033;-67
2021/12/28 06:25:17;;;;;;;85.25;33.33;;;6.70;99.90;;;;;;5033560;28;20050;-67
2021/12/28 06:27:42;;;;;;;89.47;33.22;;;6.90;99.90;;;;;;5032496;28;20247;-68
2021/12/28 06:30:09;;;;;;;83.20;32.13;;;;;;;;;;5032094;28;20523;-67
2021/12/28 06:32:35;;;;;;;77.25;31.73;;;;;;;;;;5032681;28;20041;-72
2021/12/28 06:35:01;;;;;;;84.60;31.55;;;;;;;;;;5032212;28;20103;-67
2021/12/28 06:37:27;;;;;;;87.90;30.92;;;;;;;;;;5032010;28;20048;-71
2021/12/28 06:39:53;;;;;;;81.57;30.42;;;;;;;;;;5031792;28;20037;-67
2021/12/28 06:42:19;;;;;;;79.88;30.52;;;;;;;;;;5032895;28;20044;-71
2021/12/28 06:44:47;;;;;;;80.40;28.95;;;;;;;;;;5031526;28;20037;-67
2021/12/28 06:47:13;;;;;;;83.07;28.00;;;;;;;;;;5032999;28;20382;-67
2021/12/28 06:49:39;;;;;;;70.70;27.48;;;;;;;;;;5031455;28;20059;-67
2021/12/28 06:52:06;;;;;;;71.10;27.33;;;6.80;99.90;;;;;;5031619;28;20526;-67
2021/12/28 06:54:36;;;;;;;66.95;27.50;;;;;;;;;;5031316;28;20051;-70
2021/12/28 06:57:05;;;;;;;70.88;26.90;;;6.80;99.90;;;;;;5031088;28;20041;-68
2021/12/28 06:59:31;;;;;;;66.47;25.58;;;;;;;;;;5031000;28;20399;-67
2021/12/28 07:01:58;;;;;;;59.42;25.58;;;;;;;;;;5030611;28;20120;-68
2021/12/28 07:04:24;;;;;;;62.83;25.80;;;;;;;;;;5031119;28;20504;-66
2021/12/28 07:06:50;;;;;;;64.10;25.65;;;;;;;;;;5031535;28;20520;-67
2021/12/28 07:09:16;;;;;;;63.55;25.08;;;;;;;;;;5031003;28;20049;-66
2021/12/28 07:11:42;;;;;;;61.45;23.88;;;;;;;;;;5035092;28;20571;-67
2021/12/28 07:14:08;;;;;;;63.45;22.98;;;;;;;;;;5040925;28;20515;-67
2021/12/28 07:16:33;;;;;;;60.45;23.38;;;6.80;99.90;;;;;;5047978;28;20053;-67
2021/12/28 07:18:59;;;;;;;53.08;21.95;;;;;;;;;;5047515;28;20041;-75
2021/12/28 07:21:25;;;;;;;58.05;21.95;;;;;;;;;;5047360;28;20044;-67
2021/12/28 07:23:51;;;;;;;55.60;22.38;;;;;;;;;;5049401;28;20484;-67
2021/12/28 07:26:17;;;;;;;57.83;21.48;;;;;;;;;;5036882;28;20138;-67
2021/12/28 07:28:43;;;;;;;54.95;20.10;;;;;;;;;;5027499;28;20052;-67
2021/12/28 07:31:09;;;;;;;48.05;21.65;;;;;;;;;;5028547;28;20041;-67
2021/12/28 07:33:35;;;;;;;51.75;19.83;;;6.90;99.90;;;;;;5027949;28;20049;-67
2021/12/28 07:36:00;;;;;;;54.22;20.63;;;;;;;;;;5031321;28;20155;-68
2021/12/28 07:38:27;;;;;;;59.83;21.45;;;;;;;;;;5031549;28;20515;-70
2021/12/28 07:40:52;;;;;;;51.67;20.77;;;;;;;;;;5031410;28;20041;-70
2021/12/28 07:43:18;;;;;;;50.53;19.38;;;;;;;;;;5026910;28;20116;-69
2021/12/28 07:45:44;;;;;;;54.00;19.52;;;;;;;;;;5012302;28;20033;-68
2021/12/28 07:48:10;;;;;;;51.67;20.45;;;;;;;;;;5029749;28;20045;-67
2021/12/28 07:50:36;;;;;;;46.28;18.92;;;;;;;;;;5029202;28;20554;-67
2021/12/28 07:53:02;;;;;;;53.88;19.50;;;;;;;;;;5032280;28;20116;-67
2021/12/28 07:55:28;;;;;;;52.00;19.50;;;;;;;;;;5030016;28;20087;-66
2021/12/28 07:57:54;;;;;;;46.67;18.55;;;;;;;;;;5031390;28;20461;-67
2021/12/28 08:00:22;;;;;;;45.83;17.42;;;;;;;;;;5031504;28;20079;-67
2021/12/28 08:02:48;;;;;;;43.97;17.83;;;;;;;;;;5031845;28;20044;-67
2021/12/28 08:05:15;;;;;;;35.88;16.40;;;7.10;99.90;;;;;;5030318;28;20037;-67
2021/12/28 08:07:41;;;;;;;43.33;17.35;;;;;;;;;;5030183;28;20068;-67
2021/12/28 08:10:08;;;;;;;56.58;19.95;;;7.00;99.90;;;;;;5030146;28;20049;-67
2021/12/28 08:12:35;;;;;;;43.65;17.70;;;;;;;;;;5030282;28;20079;-68
2021/12/28 08:15:03;;;;;;;49.35;17.85;;;;;;;;;;5030451;28;20049;-69
2021/12/28 08:17:29;;;;;;;45.40;18.23;;;;;;;;;;5031464;28;20077;-70
2021/12/28 08:19:55;;;;;;;48.38;16.70;;;;;;;;;;5029853;28;20041;-70
2021/12/28 08:22:21;;;;;;;38.08;16.77;;;;;;;;;;5031252;28;20042;-70
2021/12/28 08:24:47;;;;;;;42.10;16.33;;;;;;;;;;5030079;28;20041;-65
2021/12/28 08:27:13;;;;;;;44.70;17.02;;;;;;;;;;5030193;28;20048;-66
2021/12/28 08:29:39;;;;;;;42.78;16.05;;;;;;;;;;5030015;28;20120;-67
2021/12/28 08:32:07;;;;;;;38.83;15.45;;;7.20;99.90;;;;;;5030975;28;20164;-67
2021/12/28 08:34:33;;;;;;;41.35;15.70;;;;;;;;;;5029772;28;20408;-67
2021/12/28 08:36:59;;;;;;;42.67;16.67;;;;;;;;;;5019462;28;20045;-67
2021/12/28 08:39:25;;;;;;;51.88;15.90;;;;;;;;;;5021953;28;20033;-67
2021/12/28 08:41:51;;;;;;;43.42;15.48;;;;;;;;;;5029419;28;20519;-67
2021/12/28 08:44:17;;;;;;;39.65;15.30;;;;;;;;;;5029716;28;20045;-67
2021/12/28 08:46:44;;;;;;;41.80;16.05;;;;;;;;;;5031152;28;20382;-68
2021/12/28 08:49:10;;;;;;;37.70;15.02;;;;;;;;;;5029521;28;20050;-67
2021/12/28 08:51:37;;;;;;;40.88;16.02;;;7.30;99.90;;;;;;5029584;28;20136;-67
2021/12/28 08:54:03;;;;;;;40.50;16.25;;;;;;;;;;5029139;28;20493;-68
2021/12/28 08:56:29;;;;;;;41.25;15.20;;;;;;;;;;5026382;28;20095;-70
2021/12/28 08:58:55;;;;;;;40.33;15.15;;;;;;;;;;4994873;28;20073;-69
2021/12/28 09:01:21;;;;;;;48.88;18.02;;;;;;;;;;5017698;28;20037;-72
2021/12/28 09:03:47;;;;;;;45.08;16.73;;;;;;;;;;5029466;28;20045;-72
2021/12/28 09:06:13;;;;;;;38.33;15.68;;;;;;;;;;5034307;28;20038;-70
2021/12/28 09:08:39;;;;;;;47.55;16.80;;;;;;;;;;5035767;28;20048;-72
2021/12/28 09:11:07;;;;;;;43.92;16.67;;;7.50;99.90;;;;;;5023445;28;20205;-67
2021/12/28 09:13:33;;;;;;;40.65;16.98;;;7.40;99.90;;;;;;5025399;28;20065;-67
2021/12/28 09:15:59;;;;;;;46.30;17.55;;;;;;;;;;5019803;28;20122;-67
2021/12/28 09:18:25;;;;;;;37.67;17.25;;;;;;;;;;5018940;28;20041;-67
2021/12/28 09:20:51;;;;;;;44.15;16.95;;;7.70;99.90;;;;;;5014829;28;20030;-66
2021/12/28 09:23:17;;;;;;;39.42;17.15;;;;;;;;;;5046986;28;20409;-67
2021/12/28 09:25:43;;;;;;;45.17;16.98;;;;;;;;;;5021261;28;20026;-67
2021/12/28 09:28:10;;;;;;;44.17;16.85;;;;;;;;;;5027574;28;20040;-67
2021/12/28 09:30:38;;;;;;;45.65;16.70;;;7.60;99.90;;;;;;5027064;28;20431;-68
2021/12/28 09:33:05;;;;;;;47.28;17.73;;;;;;;;;;5020938;28;20049;-69
2021/12/28 09:35:31;;;;;;;49.88;17.30;;;7.60;99.90;;;;;;5022070;28;20144;-67
2021/12/28 09:37:56;;;;;;;51.63;19.65;;;7.60;99.90;;;;;;5038816;28;20488;-66
2021/12/28 09:40:22;;;;;;;47.58;17.50;;;7.60;99.90;;;;;;5024884;28;20030;-67
2021/12/28 09:42:48;;;;;;;42.38;17.48;;;7.50;99.90;;;;;;5023073;28;20029;-68
2021/12/28 09:45:15;;;;;;;38.47;17.58;;;7.50;99.90;;;;;;5022458;28;20040;-68
2021/12/28 09:47:42;;;;;;;42.80;17.35;;;7.60;99.90;;;;;;5007181;28;20037;-69
2021/12/28 09:50:11;;;;;;;39.13;18.15;;;7.50;99.90;;;;;;5037984;28;20061;-70
2021/12/28 09:52:41;;;;;;;41.35;17.00;;;7.60;99.90;;;;;;5018413;28;20499;-68
2021/12/28 09:55:07;;;;;;;37.20;17.30;;;;;;;;;;5017395;28;20041;-69
2021/12/28 09:57:34;;;;;;;38.05;17.45;;;;;;;;;;5007198;28;20045;-67
2021/12/28 10:00:00;;;;;;;39.30;16.48;;;;;;;;;;5007272;28;20509;-70
2021/12/28 10:02:26;;;;;;;45.08;18.98;;;;;;;;;;5021846;28;20559;-69
2021/12/28 10:05:04;;;;;;;37.92;16.63;;;7.80;99.90;;;;;;5009978;28;20041;-70
2021/12/28 10:07:33;;;;;;;46.78;16.90;;;7.70;99.90;;;;;;5007530;28;20123;-68
2021/12/28 10:09:59;;;;;;;37.25;17.90;;;;;;;;;;5020905;28;20055;-69
2021/12/28 10:12:31;;;;;;;41.05;18.10;;;7.70;99.90;;;;;;5022415;28;20045;-69
2021/12/28 10:15:02;;;;;;;45.95;17.98;;;7.70;99.90;;;;;;5018821;28;20113;-69
2021/12/28 10:17:31;;;;;;;36.38;20.30;;;7.80;99.90;;;;;;5046203;28;20041;-72
2021/12/28 10:19:57;;;;;;;36.20;18.58;;;7.70;99.90;;;;;;5006366;28;20073;-68
2021/12/28 10:22:34;;;;;;;42.42;18.88;;;7.80;99.90;;;;;;5012823;28;20407;-69
2021/12/28 10:25:09;;;;;;;50.35;21.10;;;;;;;;;;5012680;28;20379;-69
2021/12/28 10:27:36;;;;;;;38.97;18.70;;;7.80;99.90;;;;;;5012217;28;20050;-69
2021/12/28 10:30:16;;;;;;;47.60;19.92;;;7.60;99.90;;;;;;5012198;28;20421;-69
2021/12/28 10:32:47;;;;;;;34.35;17.85;;;7.70;99.90;;;;;;5014699;28;20046;-69
2021/12/28 10:35:15;;;;;;;38.67;17.35;;;;;;;;;;5031946;28;20073;-72
2021/12/28 10:37:44;;;;;;;33.25;18.25;;;;;;;;;;5047164;28;20049;-72
2021/12/28 10:40:13;;;;;;;33.30;18.02;;;7.70;99.90;;;;;;5031730;28;20397;-69
2021/12/28 10:42:39;;;;;;;35.28;17.65;;;;;;;;;;5032093;28;20037;-69
2021/12/28 10:45:07;;;;;;;33.45;17.48;;;7.70;99.90;;;;;;5031931;28;20048;-69
2021/12/28 10:47:33;;;;;;;39.08;17.08;;;;;;;;;;5015560;28;20045;-69
2021/12/28 10:50:01;;;;;;;34.95;16.75;;;7.80;99.90;;;;;;5031647;28;20524;-69
2021/12/28 10:52:33;;;;;;;29.77;17.05;;;7.70;99.90;;;;;;5031448;28;20037;-69
2021/12/28 10:55:25;;;;;;;34.60;17.75;;;7.80;99.90;;;;;;5031442;28;20053;-69
2021/12/28 10:57:51;;;;;;;29.33;16.38;;;8.00;99.90;;;;;;5017404;28;20092;-69
2021/12/28 11:00:28;;;;;;;35.35;18.05;;;8.00;99.90;;;;;;5016487;28;20037;-70
2021/12/28 11:03:13;;;;;;;29.58;15.70;;;7.90;99.90;;;;;;5029532;28;20048;-67
2021/12/28 11:05:39;;;;;;;33.10;16.17;;;7.80;99.90;;;;;;5037171;28;20085;-71
2021/12/28 11:08:08;;;;;;;30.23;15.80;;;8.00;99.90;;;;;;5019104;28;20045;-69
2021/12/28 11:10:35;;;;;;;24.08;14.57;;;;;;;;;;5027938;28;20046;-68
2021/12/28 11:13:01;;;;;;;24.70;14.70;;;;;;;;;;5031475;28;20103;-72
2021/12/28 11:15:27;;;;;;;26.42;15.48;;;;;;;;;;5039252;28;20562;-68
2021/12/28 11:17:53;;;;;;;27.73;16.17;;;;;;;;;;5049336;28;20041;-69
2021/12/28 11:20:30;;;;;;;23.85;14.48;;;8.00;99.90;;;;;;5047763;28;20079;-69
2021/12/28 11:23:18;;;;;;;22.02;13.45;;;8.10;99.90;;;;;;5031816;28;20041;-70
2021/12/28 11:25:45;;;;;;;24.83;14.10;;;7.90;99.90;;;;;;5031541;28;20080;-69
2021/12/28 11:28:18;;;;;;;24.05;13.82;;;;;;;;;;5047893;28;20476;-69
2021/12/28 11:31:04;;;;;;;;;;;8.00;99.90;;;;;;5037046;28;20033;-70
2021/12/28 11:33:44;;;;;;;17.60;12.88;;;;;;;;;;5012147;28;19920;-71
2021/12/28 11:36:10;;;;;;;21.55;14.13;;;;;;;;;;5031693;28;20037;-69
2021/12/28 11:38:37;;;;;;;20.45;12.68;;;;;;;;;;5032069;28;20041;-69
2021/12/28 11:41:05;;;;;;;23.80;12.98;;;7.90;99.90;;;;;;5030574;28;20038;-71
2021/12/28 11:43:33;;;;;;;20.77;13.73;;;8.10;99.90;;;;;;5030874;28;20075;-72
2021/12/28 11:45:59;;;;;;;19.38;12.13;;;;;;;;;;5030611;28;20040;-70
2021/12/28 11:48:25;;;;;;;19.27;12.45;;;;;;;;;;5030615;28;20041;-72
2021/12/28 11:50:52;;;;;;;21.77;12.32;;;;;;;;;;5031507;28;20044;-69
2021/12/28 11:53:18;;;;;;;22.77;11.55;;;8.20;99.90;;;;;;5030572;28;20045;-72
2021/12/28 11:55:44;;;;;;;17.35;11.35;;;;;;;;;;5043516;23;20518;-77
2021/12/28 11:58:10;;;;;;;17.65;11.35;;;;;;;;;;5011371;28;20053;-79
2021/12/28 12:00:37;;;;;;;20.40;11.65;;;;;;;;;;5028912;28;20547;-80
2021/12/28 12:03:03;;;;;;;14.32;10.15;;;;;;;;;;5007885;28;20044;-81
2021/12/28 12:05:30;;;;;;;18.88;10.88;;;8.20;99.90;;;;;;5020000;28;20034;-80
2021/12/28 12:08:09;;;;;;;13.80;9.93;;;8.50;99.90;;;;;;5006844;28;20042;-80
2021/12/28 12:10:37;;;;;;;17.63;10.60;;;8.50;99.90;;;;;;5004070;28;20071;-81
2021/12/28 12:13:21;;;;;;;17.52;10.90;;;8.40;99.90;;;;;;5009735;28;20034;-80
2021/12/28 12:15:49;;;;;;;15.05;9.93;;;;;;;;;;5026395;28;20120;-79
2021/12/28 12:18:17;;;;;;;17.70;10.35;;;8.30;99.90;;;;;;5027262;28;20042;-79
2021/12/28 12:20:52;;;;;;;18.10;10.68;;;8.30;99.90;;;;;;5026365;28;20040;-80
2021/12/28 12:23:21;;;;;;;16.58;9.48;;;8.50;99.90;;;;;;5028635;28;20045;-80
2021/12/28 12:26:02;;;;;;;15.63;9.70;;;8.40;99.90;;;;;;5026679;28;20029;-79
2021/12/28 12:28:36;;;;;;;13.68;9.77;;;;;;;;;;5017825;28;20045;-76
2021/12/28 12:31:03;;;;;;;19.58;10.35;;;8.30;99.90;;;;;;5005965;28;20048;-76
2021/12/28 12:33:41;;;;;;;17.30;9.05;;;;;;;;;;5008285;28;20046;-77
2021/12/28 12:36:08;;;;;;;18.88;10.55;;;;;;;;;;4996176;28;20103;-78
2021/12/28 12:38:36;;;;;;;15.93;9.73;;;8.40;99.90;;;;;;5005467;28;20041;-77
2021/12/28 12:41:18;;;;;;;15.98;9.77;;;8.30;99.90;;;;;;5004786;28;20044;-79
2021/12/28 12:43:52;;;;;;;13.63;9.23;;;;;;;;;;5019891;28;20044;-78
2021/12/28 12:46:34;;;;;;;21.90;10.07;;;8.40;99.90;;;;;;5019513;28;20084;-79
2021/12/28 12:49:04;;;;;;;15.70;9.23;;;8.50;99.90;;;;;;5022918;28;20374;-78
2021/12/28 12:51:36;;;;;;;16.35;10.25;;;8.70;99.90;;;;;;5023985;28;20042;-79
2021/12/28 12:54:02;;;;;;;17.23;9.95;;;;;;;;;;5023495;28;20037;-79
2021/12/28 12:56:33;;;;;;;13.98;9.90;;;;;;;;;;5021900;28;20559;-79
2021/12/28 12:59:03;;;;;;;18.60;10.38;;;8.40;99.90;;;;;;5023321;28;20045;-80
2021/12/28 13:01:35;;;;;;;16.65;10.55;;;;;;;;;;5038881;28;20049;-80
2021/12/28 13:04:02;;;;;;;17.05;10.10;;;;;;;;;;5006575;28;20121;-78
2021/12/28 13:06:40;;;;;;;15.77;10.80;;;8.60;99.90;;;;;;5022888;28;20046;-78
2021/12/28 13:09:07;;;;;;;21.35;10.25;;;;;;;;;;5022908;28;20101;-80
2021/12/28 13:11:33;;;;;;;15.30;10.40;;;;;;;;;;5022578;28;20053;-79
2021/12/28 13:13:59;;;;;;;13.73;9.80;;;;;;;;;;5022614;28;20110;-78
2021/12/28 13:16:25;;;;;;;14.88;9.85;;;;;;;;;;5015806;28;20404;-78
2021/12/28 13:18:51;;;;;;;16.73;9.77;;;;;;;;;;5019198;28;20048;-77
2021/12/28 13:21:20;;;;;;;17.00;9.15;;;8.50;99.90;;;;;;5019814;28;20038;-78
2021/12/28 13:24:09;;;;;;;16.08;10.13;;;8.60;99.90;;;;;;5002475;28;20083;-78
2021/12/28 13:26:46;;;;;;;17.65;10.20;;;8.60;99.90;;;;;;5002350;28;20496;-79
2021/12/28 13:29:12;;;;;;;17.23;9.25;;;;;;;;;;5002042;28;20052;-78
2021/12/28 13:31:38;;;;;;;17.30;10.00;;;;;;;;;;5030074;28;20215;-78
2021/12/28 13:34:04;;;;;;;15.70;10.75;;;;;;;;;;5037736;28;20041;-77
2021/12/28 13:36:30;;;;;;;19.30;10.70;;;;;;;;;;5037970;28;20053;-79
2021/12/28 13:39:06;;;;;;;17.75;9.13;;;8.60;99.90;;;;;;5037716;28;20048;-77
2021/12/28 13:41:31;;;;;;;17.38;9.52;;;8.50;99.90;;;;;;5033426;28;20063;-77